createdAt,value
2018-09-22T00:00:59.021Z,0.90
2018-09-22T00:03:27.135Z,0.77
2018-09-22T00:05:55.242Z,0.53
2018-09-22T00:08:23.358Z,0.80
2018-09-22T00:10:51.441Z,0.80
2018-09-22T00:13:19.760Z,0.70
2018-09-22T00:15:47.835Z,0.73
2018-09-22T00:18:15.949Z,0.70
2018-09-22T00:20:44.045Z,0.63
2018-09-22T00:23:12.191Z,0.60
2018-09-22T00:25:40.277Z,0.80
2018-09-22T00:28:08.367Z,0.80
2018-09-22T00:30:36.473Z,0.50
2018-09-22T00:33:04.747Z,0.70
2018-09-22T00:35:32.889Z,0.80
2018-09-22T00:38:00.965Z,0.50
2018-09-22T00:40:29.125Z,0.70
2018-09-22T00:42:57.256Z,0.80
2018-09-22T00:45:25.377Z,0.60
2018-09-22T00:47:53.474Z,0.60
2018-09-22T00:50:21.658Z,0.80
2018-09-22T00:52:49.745Z,0.80
2018-09-22T00:55:17.865Z,0.60
2018-09-22T00:57:45.966Z,0.80
2018-09-22T01:00:14.058Z,0.97
2018-09-22T01:02:42.142Z,0.70
2018-09-22T01:05:10.254Z,0.67
2018-09-22T01:07:38.350Z,0.80
2018-09-22T01:10:06.430Z,0.60
2018-09-22T01:12:34.567Z,0.63
2018-09-22T01:15:02.671Z,0.60
2018-09-22T01:17:30.774Z,0.80
2018-09-22T01:19:58.890Z,0.77
2018-09-22T01:22:27.041Z,0.80
2018-09-22T01:24:55.128Z,0.80
2018-09-22T01:27:23.283Z,0.80
2018-09-22T01:29:51.370Z,0.90
2018-09-22T01:32:19.458Z,0.57
2018-09-22T01:34:47.570Z,0.80
2018-09-22T01:37:15.685Z,0.93
2018-09-22T01:39:43.842Z,0.80
2018-09-22T01:42:11.965Z,0.90
2018-09-22T01:44:40.041Z,0.83
2018-09-22T01:47:08.168Z,0.90
2018-09-22T01:49:36.333Z,0.80
2018-09-22T01:52:04.413Z,0.90
2018-09-22T01:54:32.501Z,1.10
2018-09-22T01:57:00.572Z,0.70
2018-09-22T01:59:28.659Z,0.80
2018-09-22T02:01:56.788Z,1.27
2018-09-22T02:04:24.916Z,0.97
2018-09-22T02:06:53.005Z,1.00
2018-09-22T02:09:21.081Z,1.10
2018-09-22T02:11:50.170Z,1.03
2018-09-22T02:14:18.241Z,1.20
2018-09-22T02:16:46.314Z,0.90
2018-09-22T02:19:14.406Z,1.10
2018-09-22T02:21:42.510Z,0.83
2018-09-22T02:24:10.609Z,0.93
2018-09-22T02:26:38.693Z,1.10
2018-09-22T02:29:06.785Z,0.93
2018-09-22T02:31:34.869Z,1.03
2018-09-22T02:34:02.954Z,0.90
2018-09-22T02:36:31.069Z,0.90
2018-09-22T02:38:59.191Z,0.90
2018-09-22T02:41:27.320Z,0.90
2018-09-22T02:43:55.410Z,0.80
2018-09-22T02:46:23.561Z,1.10
2018-09-22T02:48:51.646Z,1.07
2018-09-22T02:51:19.760Z,0.90
2018-09-22T02:53:47.877Z,1.00
2018-09-22T02:56:15.977Z,1.00
2018-09-22T02:58:44.097Z,0.90
2018-09-22T03:01:12.201Z,1.00
2018-09-22T03:03:40.285Z,1.10
2018-09-22T03:06:08.401Z,0.90
2018-09-22T03:08:36.541Z,0.80
2018-09-22T03:11:04.621Z,1.13
2018-09-22T03:13:32.728Z,1.10
2018-09-22T03:16:00.822Z,1.00
2018-09-22T03:18:29.040Z,0.90
2018-09-22T03:20:57.105Z,1.13
2018-09-22T03:23:25.223Z,1.00
2018-09-22T03:25:53.287Z,0.80
2018-09-22T03:28:21.401Z,1.00
2018-09-22T03:30:49.743Z,1.10
2018-09-22T03:33:17.805Z,1.00
2018-09-22T03:35:45.901Z,1.00
2018-09-22T03:38:13.983Z,1.00
2018-09-22T03:40:42.103Z,0.90
2018-09-22T03:43:10.189Z,1.17
2018-09-22T03:45:38.315Z,0.90
2018-09-22T03:48:06.612Z,1.00
2018-09-22T03:50:34.686Z,1.20
2018-09-22T03:53:02.770Z,1.10
2018-09-22T03:55:30.849Z,1.13
2018-09-22T03:57:58.937Z,1.10
2018-09-22T04:00:27.116Z,0.90
2018-09-22T04:02:55.186Z,1.10
2018-09-22T04:05:23.267Z,0.90
2018-09-22T04:07:51.388Z,0.93
2018-09-22T04:10:19.471Z,1.00
2018-09-22T04:12:47.589Z,1.10
2018-09-22T04:15:15.726Z,0.97
2018-09-22T04:17:43.819Z,1.00
2018-09-22T04:20:11.934Z,0.90
2018-09-22T04:22:40.037Z,1.20
2018-09-22T04:25:08.246Z,1.20
2018-09-22T04:27:36.345Z,1.03
2018-09-22T04:30:04.694Z,1.10
2018-09-22T04:32:32.777Z,1.20
2018-09-22T04:35:00.942Z,0.97
2018-09-22T04:37:29.013Z,1.00
2018-09-22T04:39:57.100Z,1.30
2018-09-22T04:42:25.190Z,1.17
2018-09-22T04:44:53.298Z,1.10
2018-09-22T04:47:21.398Z,1.17
2018-09-22T04:49:49.632Z,1.07
2018-09-22T04:52:17.785Z,1.00
2018-09-22T04:54:45.896Z,0.83
2018-09-22T04:57:14.149Z,1.10
2018-09-22T04:59:42.242Z,1.03
2018-09-22T05:02:10.485Z,1.00
2018-09-22T05:04:38.771Z,1.30
2018-09-22T05:07:07.354Z,1.00
2018-09-22T05:09:35.464Z,1.00
2018-09-22T05:12:03.573Z,1.27
2018-09-22T05:14:31.671Z,1.10
2018-09-22T05:16:59.991Z,1.20
2018-09-22T05:19:28.061Z,1.10
2018-09-22T05:21:56.149Z,1.00
2018-09-22T05:24:24.250Z,1.20
2018-09-22T05:26:52.381Z,1.20
2018-09-22T05:29:20.547Z,1.17
2018-09-22T05:31:48.671Z,1.07
2018-09-22T05:34:16.805Z,1.13
2018-09-22T05:36:44.905Z,1.30
2018-09-22T05:39:13.038Z,1.20
2018-09-22T05:41:41.214Z,1.13
2018-09-22T05:44:09.529Z,1.10
2018-09-22T05:46:37.697Z,1.20
2018-09-22T05:49:05.907Z,1.07
2018-09-22T05:51:34.025Z,1.10
2018-09-22T05:54:02.184Z,1.30
2018-09-22T05:56:30.283Z,1.10
2018-09-22T05:58:58.389Z,1.40
2018-09-22T06:01:26.523Z,1.27
2018-09-22T06:03:54.890Z,1.00
2018-09-22T06:06:22.904Z,1.00
2018-09-22T06:08:51.025Z,1.10
2018-09-22T06:11:19.225Z,1.20
2018-09-22T06:13:47.693Z,1.03
2018-09-22T06:16:15.872Z,1.10
2018-09-22T06:18:43.964Z,1.37
2018-09-22T06:21:12.097Z,1.00
2018-09-22T06:23:40.222Z,1.40
2018-09-22T06:26:08.398Z,1.20
2018-09-22T06:28:36.575Z,1.27
2018-09-22T06:31:04.765Z,1.23
2018-09-22T06:33:32.892Z,1.20
2018-09-22T06:36:01.736Z,1.20
2018-09-22T06:38:29.933Z,1.10
2018-09-22T06:40:58.032Z,1.10
2018-09-22T06:43:26.210Z,1.10
2018-09-22T06:45:54.373Z,1.20
2018-09-22T06:48:22.604Z,1.33
2018-09-22T06:50:50.772Z,1.17
2018-09-22T06:53:19.254Z,1.20
2018-09-22T06:55:47.397Z,0.93
2018-09-22T06:58:15.520Z,1.00
2018-09-22T07:00:43.635Z,1.20
2018-09-22T07:03:11.808Z,1.10
2018-09-22T07:05:39.980Z,1.40
2018-09-22T07:08:08.133Z,1.30
2018-09-22T07:10:36.289Z,1.47
2018-09-22T07:13:04.438Z,1.23
2018-09-22T07:15:32.539Z,1.13
2018-09-22T07:18:00.708Z,1.10
2018-09-22T07:20:28.824Z,1.37
2018-09-22T07:23:02.368Z,1.03
2018-09-22T07:25:30.716Z,1.53
2018-09-22T07:27:58.875Z,1.30
2018-09-22T07:30:26.989Z,1.10
2018-09-22T07:32:55.199Z,1.10
2018-09-22T07:35:23.337Z,1.10
2018-09-22T07:37:51.483Z,1.30
2018-09-22T07:40:19.632Z,1.33
2018-09-22T07:42:47.816Z,1.40
2018-09-22T07:45:16.038Z,1.20
2018-09-22T07:47:44.131Z,1.10
2018-09-22T07:50:12.647Z,1.17
2018-09-22T07:52:40.740Z,1.17
2018-09-22T07:55:08.948Z,1.30
2018-09-22T07:57:37.081Z,1.30
2018-09-22T08:00:05.442Z,1.20
2018-09-22T08:02:33.554Z,1.33
2018-09-22T08:05:01.660Z,1.40
2018-09-22T08:07:29.837Z,1.30
2018-09-22T08:09:58.120Z,1.50
2018-09-22T08:12:26.256Z,1.30
2018-09-22T08:14:54.422Z,1.73
2018-09-22T08:17:22.529Z,1.63
2018-09-22T08:19:50.630Z,1.90
2018-09-22T08:22:18.849Z,2.30
2018-09-22T08:24:46.979Z,6.03
2018-09-22T08:27:15.208Z,2.17
2018-09-22T08:29:43.396Z,6.20
2018-09-22T08:32:11.552Z,2.60
2018-09-22T08:34:39.756Z,2.30
2018-09-22T08:37:08.099Z,2.13
2018-09-22T08:39:36.009Z,2.37
2018-09-22T08:42:04.085Z,1.90
2018-09-22T08:44:32.321Z,1.80
2018-09-22T08:47:00.446Z,1.60
2018-09-22T08:49:28.720Z,1.83
2018-09-22T08:51:56.805Z,1.67
2018-09-22T08:54:25.007Z,2.17
2018-09-22T08:56:53.294Z,1.93
2018-09-22T08:59:21.378Z,16.17
2018-09-22T09:01:49.480Z,3.60
2018-09-22T09:04:17.620Z,2.00
2018-09-22T09:06:45.772Z,2.70
2018-09-22T09:09:13.894Z,2.93
2018-09-22T09:11:42.181Z,2.40
2018-09-22T09:14:10.323Z,2.70
2018-09-22T09:16:38.477Z,2.47
2018-09-22T09:19:06.569Z,2.43
2018-09-22T09:21:34.658Z,2.27
2018-09-22T09:24:02.909Z,2.33
2018-09-22T09:26:31.095Z,2.60
2018-09-22T09:28:59.205Z,2.93
2018-09-22T09:31:27.327Z,2.50
2018-09-22T09:33:55.410Z,2.57
2018-09-22T09:36:23.601Z,4.70
2018-09-22T09:38:56.291Z,3.33
2018-09-22T09:41:24.408Z,3.83
2018-09-22T09:43:52.554Z,2.97
2018-09-22T09:46:20.726Z,5.40
2018-09-22T09:48:48.832Z,3.93
2018-09-22T09:51:17.153Z,4.13
2018-09-22T09:53:45.777Z,4.37
2018-09-22T09:56:13.916Z,4.53
2018-09-22T09:58:42.028Z,6.07
2018-09-22T10:01:16.780Z,6.40
2018-09-22T10:03:44.877Z,5.83
2018-09-22T10:06:13.104Z,5.53
2018-09-22T10:08:41.290Z,7.20
2018-09-22T10:11:09.395Z,8.17
2018-09-22T10:13:37.561Z,15.70
2018-09-22T10:16:05.680Z,8.87
2018-09-22T10:18:33.855Z,6.40
2018-09-22T10:21:01.960Z,6.03
2018-09-22T10:23:30.090Z,5.37
2018-09-22T10:25:58.228Z,6.17
2018-09-22T10:28:26.383Z,5.93
2018-09-22T10:30:54.532Z,4.37
2018-09-22T10:33:22.628Z,5.00
2018-09-22T10:35:50.775Z,5.30
2018-09-22T10:38:18.908Z,4.47
2018-09-22T10:40:47.123Z,3.77
2018-09-22T10:43:15.252Z,4.00
2018-09-22T10:45:43.322Z,3.80
2018-09-22T10:48:12.017Z,15.17
2018-09-22T10:50:40.157Z,5.63
2018-09-22T10:53:08.368Z,6.67
2018-09-22T10:55:36.405Z,7.50
2018-09-22T10:58:04.581Z,4.87
2018-09-22T11:00:32.777Z,4.50
2018-09-22T11:03:00.956Z,4.03
2018-09-22T11:05:29.100Z,3.63
2018-09-22T11:07:57.196Z,4.37
2018-09-22T11:10:25.609Z,3.70
2018-09-22T11:12:53.762Z,3.60
2018-09-22T11:15:22.003Z,3.93
2018-09-22T11:17:50.393Z,2.90
2018-09-22T11:20:18.525Z,2.70
2018-09-22T11:22:46.640Z,2.37
2018-09-22T11:25:14.808Z,3.70
2018-09-22T11:27:42.949Z,2.80
2018-09-22T11:30:11.064Z,2.97
2018-09-22T11:32:39.238Z,2.63
2018-09-22T11:35:07.503Z,2.70
2018-09-22T11:37:35.633Z,3.07
2018-09-22T11:40:03.774Z,2.90
2018-09-22T11:42:32.115Z,2.27
2018-09-22T11:45:00.990Z,2.93
2018-09-22T11:47:29.139Z,2.70
2018-09-22T11:49:57.374Z,4.00
2018-09-22T11:52:25.693Z,2.50
2018-09-22T11:54:53.805Z,2.77
2018-09-22T11:57:22.144Z,2.40
2018-09-22T11:59:50.268Z,2.37
2018-09-22T12:02:18.441Z,2.37
2018-09-22T12:04:46.668Z,3.60
2018-09-22T12:07:14.826Z,2.67
2018-09-22T12:09:43.026Z,2.50
2018-09-22T12:12:11.222Z,2.40
2018-09-22T12:14:39.370Z,3.33
2018-09-22T12:17:07.584Z,4.50
2018-09-22T12:19:35.768Z,3.67
2018-09-22T12:22:04.331Z,4.10
2018-09-22T12:24:32.608Z,4.23
2018-09-22T12:27:00.804Z,4.23
2018-09-22T12:29:28.961Z,3.57
2018-09-22T12:31:57.173Z,3.73
2018-09-22T12:34:25.267Z,3.50
2018-09-22T12:36:53.444Z,3.10
2018-09-22T12:39:21.616Z,3.10
2018-09-22T12:41:49.729Z,3.03
2018-09-22T12:44:17.896Z,2.87
2018-09-22T12:46:45.983Z,2.73
2018-09-22T12:49:14.221Z,2.40
2018-09-22T12:51:42.457Z,2.50
2018-09-22T12:54:10.581Z,1.67
2018-09-22T12:56:38.717Z,2.20
2018-09-22T12:59:07.011Z,8.27
2018-09-22T13:01:35.889Z,2.03
2018-09-22T13:04:04.232Z,2.50
2018-09-22T13:06:32.396Z,2.73
2018-09-22T13:09:00.734Z,2.30
2018-09-22T13:11:29.079Z,1.87
2018-09-22T13:13:57.344Z,1.70
2018-09-22T13:16:32.317Z,7.07
2018-09-22T13:19:00.907Z,5.80
2018-09-22T13:21:29.306Z,4.33
2018-09-22T13:23:57.648Z,3.47
2018-09-22T13:26:26.035Z,3.33
2018-09-22T13:28:54.294Z,2.83
2018-09-22T13:31:23.754Z,2.87
2018-09-22T13:33:52.177Z,3.10
2018-09-22T13:36:20.420Z,3.73
2018-09-22T13:38:48.595Z,2.87
2018-09-22T13:41:16.709Z,2.87
2018-09-22T13:43:45.263Z,2.73
2018-09-22T13:46:13.378Z,2.63
2018-09-22T13:48:41.734Z,5.10
2018-09-22T13:51:09.856Z,5.20
2018-09-22T13:53:38.015Z,2.20
2018-09-22T13:56:07.285Z,6.27
2018-09-22T13:58:35.382Z,10.93
2018-09-22T14:01:03.545Z,8.33
2018-09-22T14:03:31.797Z,6.80
2018-09-22T14:05:59.845Z,6.13
2018-09-22T14:08:28.031Z,5.23
2018-09-22T14:10:56.131Z,5.30
2018-09-22T14:13:24.308Z,5.00
2018-09-22T14:15:52.405Z,5.60
2018-09-22T14:18:20.787Z,5.70
2018-09-22T14:20:49.798Z,4.50
2018-09-22T14:23:17.932Z,4.10
2018-09-22T14:25:46.171Z,6.13
2018-09-22T14:28:14.347Z,4.80
2018-09-22T14:30:42.481Z,9.03
2018-09-22T14:33:10.745Z,4.73
2018-09-22T14:35:38.942Z,4.87
2018-09-22T14:38:07.389Z,7.97
2018-09-22T14:40:35.551Z,5.53
2018-09-22T14:43:03.638Z,5.33
2018-09-22T14:45:31.749Z,5.23
2018-09-22T14:47:59.920Z,4.30
2018-09-22T14:50:28.038Z,5.13
2018-09-22T14:52:56.337Z,5.50
2018-09-22T14:55:24.572Z,4.50
2018-09-22T14:57:52.733Z,3.97
2018-09-22T15:00:20.966Z,4.13
2018-09-22T15:02:49.072Z,4.30
2018-09-22T15:05:17.219Z,4.13
2018-09-22T15:07:45.529Z,3.60
2018-09-22T15:10:13.637Z,3.63
2018-09-22T15:12:43.869Z,3.70
2018-09-22T15:15:12.011Z,3.70
2018-09-22T15:17:40.240Z,3.83
2018-09-22T15:20:08.348Z,3.10
2018-09-22T15:22:36.452Z,2.37
2018-09-22T15:25:04.618Z,3.20
2018-09-22T15:27:32.830Z,3.37
2018-09-22T15:30:00.998Z,2.90
2018-09-22T15:32:29.178Z,3.20
2018-09-22T15:34:57.288Z,3.10
2018-09-22T15:37:25.407Z,3.13
2018-09-22T15:39:53.544Z,4.27
2018-09-22T15:42:21.677Z,7.37
2018-09-22T15:44:49.817Z,3.60
2018-09-22T15:47:18.007Z,4.20
2018-09-22T15:49:46.180Z,4.07
2018-09-22T15:52:14.371Z,3.53
2018-09-22T15:54:42.421Z,3.70
2018-09-22T15:57:10.536Z,3.60
2018-09-22T15:59:39.099Z,2.63
2018-09-22T16:02:07.474Z,2.80
2018-09-22T16:04:35.633Z,3.13
2018-09-22T16:07:03.763Z,2.80
2018-09-22T16:09:31.863Z,2.83
2018-09-22T16:12:00.212Z,2.13
2018-09-22T16:14:28.369Z,3.33
2018-09-22T16:16:56.546Z,3.93
2018-09-22T16:19:24.689Z,3.20
2018-09-22T16:21:52.847Z,3.43
2018-09-22T16:24:20.966Z,3.43
2018-09-22T16:26:49.182Z,4.30
2018-09-22T16:29:18.085Z,3.77
2018-09-22T16:31:46.440Z,3.23
2018-09-22T16:34:14.601Z,3.43
2018-09-22T16:36:42.705Z,3.97
2018-09-22T16:39:11.758Z,3.30
2018-09-22T16:41:40.237Z,2.77
2018-09-22T16:44:08.465Z,3.30
2018-09-22T16:46:36.893Z,3.60
2018-09-22T16:49:05.079Z,3.13
2018-09-22T16:51:33.520Z,2.60
2018-09-22T16:54:01.761Z,2.63
2018-09-22T16:56:29.867Z,2.73
2018-09-22T16:58:58.046Z,2.57
2018-09-22T17:01:26.294Z,2.83
2018-09-22T17:03:54.452Z,2.90
2018-09-22T17:06:22.562Z,2.63
2018-09-22T17:08:50.662Z,1.97
2018-09-22T17:11:18.782Z,2.37
2018-09-22T17:13:46.910Z,2.47
2018-09-22T17:16:15.138Z,2.30
2018-09-22T17:18:43.133Z,2.60
2018-09-22T17:21:11.287Z,2.77
2018-09-22T17:23:39.666Z,2.60
2018-09-22T17:26:07.777Z,2.67
2018-09-22T17:28:36.217Z,2.33
2018-09-22T17:31:04.381Z,2.30
2018-09-22T17:33:32.563Z,2.30
2018-09-22T17:36:00.829Z,1.90
2018-09-22T17:38:28.956Z,2.10
2018-09-22T17:40:58.099Z,1.80
2018-09-22T17:43:26.233Z,2.10
2018-09-22T17:45:54.370Z,2.10
2018-09-22T17:48:22.518Z,2.17
2018-09-22T17:50:50.696Z,1.80
2018-09-22T17:53:18.896Z,1.90
2018-09-22T17:55:47.706Z,2.07
2018-09-22T17:58:15.955Z,1.57
2018-09-22T18:00:44.078Z,1.90
2018-09-22T18:03:12.284Z,2.23
2018-09-22T18:05:40.427Z,2.03
2018-09-22T18:08:08.589Z,2.23
2018-09-22T18:10:36.696Z,1.53
2018-09-22T18:13:04.857Z,2.00
2018-09-22T18:15:32.984Z,2.03
2018-09-22T18:18:01.187Z,1.80
2018-09-22T18:20:29.295Z,2.13
2018-09-22T18:22:57.421Z,2.33
2018-09-22T18:25:25.664Z,2.40
2018-09-22T18:27:53.705Z,1.90
2018-09-22T18:30:21.933Z,2.00
2018-09-22T18:32:50.319Z,1.80
2018-09-22T18:35:18.425Z,2.40
2018-09-22T18:37:46.567Z,2.20
2018-09-22T18:40:14.739Z,1.90
2018-09-22T18:42:43.027Z,2.40
2018-09-22T18:45:11.139Z,2.10
2018-09-22T18:47:39.259Z,2.10
2018-09-22T18:50:07.581Z,2.43
2018-09-22T18:52:35.742Z,1.67
2018-09-22T18:55:03.829Z,1.97
2018-09-22T18:57:31.969Z,2.30
2018-09-22T19:00:00.244Z,1.80
2018-09-22T19:02:28.563Z,2.50
2018-09-22T19:04:56.830Z,2.10
2018-09-22T19:07:25.015Z,2.00
2018-09-22T19:09:53.185Z,2.20
2018-09-22T19:12:21.365Z,1.87
2018-09-22T19:14:53.952Z,2.00
2018-09-22T19:17:26.874Z,2.00
2018-09-22T19:20:02.340Z,2.10
2018-09-22T19:22:35.355Z,1.90
2018-09-22T19:25:08.371Z,2.00
2018-09-22T19:28:41.668Z,3.87
2018-09-22T19:31:21.003Z,2.20
2018-09-22T19:33:55.609Z,2.57
2018-09-22T19:37:28.138Z,2.67
2018-09-22T19:41:01.485Z,2.37
2018-09-22T19:43:35.065Z,2.20
2018-09-22T19:46:08.000Z,2.07
2018-09-22T19:48:39.740Z,2.13
2018-09-22T19:51:09.738Z,2.20
2018-09-22T19:53:39.327Z,2.07
2018-09-22T19:56:07.485Z,2.33
2018-09-22T19:58:35.665Z,1.90
2018-09-22T20:01:03.804Z,1.70
2018-09-22T20:03:32.605Z,3.23
2018-09-22T20:06:00.708Z,4.43
2018-09-22T20:08:28.830Z,2.40
2018-09-22T20:10:56.960Z,2.57
2018-09-22T20:13:25.356Z,2.57
2018-09-22T20:15:53.518Z,2.30
2018-09-22T20:18:21.659Z,2.30
2018-09-22T20:20:49.983Z,2.43
2018-09-22T20:23:18.202Z,1.90
2018-09-22T20:25:46.300Z,2.10
2018-09-22T20:28:14.448Z,2.10
2018-09-22T20:30:42.563Z,2.00
2018-09-22T20:33:10.692Z,2.30
2018-09-22T20:35:38.821Z,2.10
2018-09-22T20:38:06.964Z,2.43
2018-09-22T20:40:36.071Z,2.37
2018-09-22T20:43:04.313Z,2.60
2018-09-22T20:45:32.458Z,2.43
2018-09-22T20:48:00.689Z,2.30
2018-09-22T20:50:28.919Z,2.40
2018-09-22T20:52:57.032Z,2.50
2018-09-22T20:55:25.158Z,2.80
2018-09-22T20:57:53.284Z,2.60
2018-09-22T21:00:21.425Z,2.57
2018-09-22T21:02:49.784Z,2.77
2018-09-22T21:05:17.895Z,2.70
2018-09-22T21:07:46.019Z,2.90
2018-09-22T21:10:14.142Z,2.47
2018-09-22T21:12:42.314Z,2.40
2018-09-22T21:15:10.423Z,2.60
2018-09-22T21:17:38.531Z,2.43
2018-09-22T21:20:06.787Z,2.13
2018-09-22T21:22:34.908Z,2.60
2018-09-22T21:25:03.031Z,2.07
2018-09-22T21:27:31.176Z,2.20
2018-09-22T21:29:59.285Z,2.07
2018-09-22T21:32:27.385Z,2.27
2018-09-22T21:34:55.610Z,2.40
2018-09-22T21:37:23.717Z,2.20
2018-09-22T21:39:51.872Z,2.27
2018-09-22T21:42:19.987Z,2.23
2018-09-22T21:44:48.177Z,2.40
2018-09-22T21:47:16.347Z,4.27
2018-09-22T21:49:44.449Z,4.13
2018-09-22T21:52:13.366Z,3.50
2018-09-22T21:54:41.488Z,3.10
2018-09-22T21:57:09.615Z,2.70
2018-09-22T21:59:37.737Z,3.00
2018-09-22T22:02:05.861Z,2.43
2018-09-22T22:04:34.002Z,2.33
2018-09-22T22:07:02.109Z,2.43
2018-09-22T22:09:30.290Z,2.50
2018-09-22T22:11:58.417Z,2.40
2018-09-22T22:14:26.546Z,2.50
2018-09-22T22:16:54.661Z,2.30
2018-09-22T22:19:23.013Z,2.40
2018-09-22T22:21:51.142Z,2.33
2018-09-22T22:24:19.242Z,2.27
2018-09-22T22:26:47.358Z,2.40
2018-09-22T22:29:15.525Z,2.50
2018-09-22T22:31:43.679Z,2.33
2018-09-22T22:34:11.750Z,2.23
2018-09-22T22:36:39.840Z,2.50
2018-09-22T22:39:07.966Z,2.17
2018-09-22T22:41:36.143Z,3.10
2018-09-22T22:44:04.284Z,2.80
2018-09-22T22:46:32.369Z,2.60
2018-09-22T22:49:00.526Z,2.77
2018-09-22T22:51:28.727Z,2.63
2018-09-22T22:53:56.842Z,2.70
2018-09-22T22:56:24.937Z,2.70
2018-09-22T22:58:53.174Z,2.57
2018-09-22T23:01:21.270Z,2.50
2018-09-22T23:03:49.398Z,2.57
2018-09-22T23:06:17.507Z,2.40
2018-09-22T23:08:45.597Z,2.60
2018-09-22T23:11:13.700Z,2.53
2018-09-22T23:13:42.033Z,2.60
2018-09-22T23:16:10.124Z,2.60
2018-09-22T23:18:38.311Z,2.50
2018-09-22T23:21:06.501Z,3.00
2018-09-22T23:23:34.649Z,3.30
2018-09-22T23:26:02.733Z,3.10
2018-09-22T23:28:30.955Z,3.50
2018-09-22T23:30:59.117Z,3.83
2018-09-22T23:33:27.223Z,4.20
2018-09-22T23:35:55.909Z,4.80
2018-09-22T23:38:24.165Z,5.30
2018-09-22T23:40:52.279Z,4.67
2018-09-22T23:43:20.357Z,5.40
2018-09-22T23:45:48.500Z,6.70
2018-09-22T23:48:16.649Z,6.33
2018-09-22T23:50:44.811Z,7.27
2018-09-22T23:53:12.988Z,8.13
2018-09-22T23:55:41.088Z,9.07
2018-09-22T23:58:09.269Z,9.30
